Cestohowa, Texas
Current Conditions -  °F | °C
As of 9:55 AM on Thursday 27 Nov 2014 (Local Time) from KPEZ Reporting Station
Clear Clear  
Wind Chill: 58°   Ceiling: Unl
Heat Index: 58°   Visibility: 10mi
Dew Point: 32°   Wind: 16mph
Humidity: 38%   Direction: 50°NE
Pressure: 30.51"   Gusts: 24mph
Location:  28.933°N, 98.0642°W
Report Text: KPEZ 271555Z AUTO 05014G21KT 10SM CLR 14/00 A3051 RMK AO2 T01430001
Loading
Personal Weather Stations






























Interactive Weather Map New forecast layout! Learn more

10-Day Weather Forecast

Advertisements
Track Severe Weather on mobile